Ana Sayfa
METAR-TAF:

METAR-TAF

Havaalanları :

Garner Field

Uvalde, Teksas, Amerika Birleşik Devletleri

Enlem: 29-12-40N, Boylam: 099-44-36W, yükseklik: 287 m

Güncel hava durumu gözlemi

Rapor saat 21:55 UTC de 32 dakika önce yapıldı.
Rüzgar güneydoğudan 14 kt ve 17 kt'a kadar ani rüzgarlar
Sıcaklık 37°C
Nem 31%
Basınç 1008 hPa
Görüş mesafesi: 16.1 km
Açık gökyüzü

METAR: KUVA 162155Z AUTO 14014G17KT 10SM CLR 37/17 A2976 RMK AO2 T03710173

Saat: 17:27 (22:27 UTC)


TAF: eksik

4.000'den fazla havaalanı için hava durumu gözlemleri ve tahminleri (METAR ve TAF raporları).

Kullanılabilir istasyonlar harita üzerinde sarı ve kırmızı noktalarla gösterilir.

İstasyonun adını görmek için fareyi noktanın üzerinde gezdirin.

Sonrasında hava gözlem ve tahminlerini görmek için tıklayın.

Haritayı değiştirmek için: yaklaştırmak için siyah artı işaretli yeşil düğmeye ve uzaklaştırmak için de eksi işaretli düğmeye hızla tıklayın; bitişik haritalar için yeşil okları kullanın.


METAR-TAF: